Time;durP1;ratioP1;P1;durP2;ratioP2;P2;SDS_P1;SDS_P2;PMS_P1;PMS_P2;Temp;Humidity;BMP_temperature;BMP_pressure;BME280_temperature;BME280_humidity;BME280_pressure;Samples;Min_cycle;Max_cycle;Signal;HPM_P1;HPM_P2
2022/04/25 00:02:25;;;;;;;3.43;3.23;;;;;;;;;;5051101;28;20202;-84
2022/04/25 00:04:52;;;;;;;4.33;3.27;;;;;;;;;;5051168;28;20180;-85
2022/04/25 00:07:18;;;;;;;3.37;3.17;;;;;;;;;;5072293;28;20181;-85
2022/04/25 00:09:45;;;;;;;3.17;2.87;;;;;;;;;;5053969;28;20668;-85
2022/04/25 00:12:11;;;;;;;3.30;3.10;;;;;;;;;;5054876;28;20192;-84
2022/04/25 00:14:37;;;;;;;3.40;3.20;;;;;;;;;;5072348;28;20180;-85
2022/04/25 00:17:03;;;;;;;3.33;3.07;;;;;;;;;;5066535;28;20177;-84
2022/04/25 00:19:50;;;;;;;2.80;2.60;;;;;;;;;;5044539;28;20184;-85
2022/04/25 00:22:17;;;;;;;3.40;3.20;;;;;;;;;;5048689;28;20196;-84
2022/04/25 00:24:44;;;;;;;3.60;3.30;;;;;;;;;;5069485;28;20662;-84
2022/04/25 00:27:12;;;;;;;3.53;3.20;;;;;;;;;;5051776;28;20291;-85
2022/04/25 00:29:38;;;;;;;3.90;3.43;;;;;;;;;;5064169;28;20282;-85
2022/04/25 00:32:05;;;;;;;3.90;3.60;;;;;;;;;;5067982;28;20189;-85
2022/04/25 00:34:31;;;;;;;5.50;3.40;;;;;;;;;;5069270;28;20619;-85
2022/04/25 00:36:57;;;;;;;3.50;3.20;;;;;;;;;;5051196;28;20184;-84
2022/04/25 00:39:23;;;;;;;3.70;3.40;;;;;;;;;;5050957;28;20649;-85
2022/04/25 00:41:49;;;;;;;3.60;3.30;;;;;;;;;;5060548;28;20180;-85
2022/04/25 00:44:16;;;;;;;4.17;3.77;;;;;;;;;;5069435;28;20263;-84
2022/04/25 00:46:43;;;;;;;3.20;3.00;;;;;;;;;;5069300;28;20168;-86
2022/04/25 00:49:09;;;;;;;3.70;3.40;;;;;;;;;;5083704;28;20173;-85
2022/04/25 00:51:36;;;;;;;3.53;3.23;;;;;;;;;;5068898;28;20204;-85
2022/04/25 00:54:02;;;;;;;3.60;3.30;;;;;;;;;;5066876;28;20418;-84
2022/04/25 00:56:28;;;;;;;3.83;3.57;;;;;;;;;;5074673;28;20169;-85
2022/04/25 00:58:55;;;;;;;4.03;3.73;;;;;;;;;;5072893;28;20272;-85
2022/04/25 01:01:21;;;;;;;4.07;3.67;;;;;;;;;;5074751;28;20221;-84
2022/04/25 01:03:49;;;;;;;3.80;3.50;;;;;;;;;;5071110;28;20187;-83
2022/04/25 01:06:15;;;;;;;4.10;3.80;;;;;;;;;;5072300;28;20580;-84
2022/04/25 01:08:41;;;;;;;4.03;3.73;;;;;;;;;;5070730;28;20234;-82
2022/04/25 01:11:07;;;;;;;3.80;3.50;;;;;;;;;;5088041;28;20641;-83
2022/04/25 01:13:33;;;;;;;4.13;3.73;;;;;;;;;;5071825;28;20204;-83
2022/04/25 01:16:00;;;;;;;4.10;3.80;;;;;;;;;;5056793;28;20267;-84
2022/04/25 01:18:26;;;;;;;3.80;3.33;;;;;;;;;;5070845;28;20176;-83
2022/04/25 01:20:56;;;;;;;3.63;3.33;;;;;;;;;;5073314;28;20180;-83
2022/04/25 01:28:52;;;;;;;3.38;3.10;;;;;;;;;;5068285;28;20788;-83
2022/04/25 01:31:18;;;;;;;3.80;3.50;;;;;;;;;;5073561;28;20207;-83
2022/04/25 01:33:44;;;;;;;3.30;3.10;;;;;;;;;;5073260;28;20228;-83
2022/04/25 01:36:11;;;;;;;3.37;3.13;;;;;;;;;;5074704;28;20192;-83
2022/04/25 01:38:37;;;;;;;3.57;3.10;;;;;;;;;;5071833;28;20187;-83
2022/04/25 01:41:03;;;;;;;5.83;3.13;;;;;;;;;;5074005;28;20180;-84
2022/04/25 01:43:29;;;;;;;3.30;3.03;;;;;;;;;;5071957;28;20188;-84
2022/04/25 01:45:55;;;;;;;3.37;3.07;;;;;;;;;;5092834;28;20652;-84
2022/04/25 01:48:21;;;;;;;3.07;2.87;;;;;;;;;;5087699;28;20275;-83
2022/04/25 01:50:49;;;;;;;2.97;2.77;;;;;;;;;;5091863;28;20248;-83
2022/04/25 01:53:15;;;;;;;2.90;2.70;;;;;;;;;;5071277;28;20484;-83
2022/04/25 01:55:42;;;;;;;3.20;2.60;;;;;;;;;;5070836;28;20792;-84
2022/04/25 01:58:08;;;;;;;3.33;3.13;;;;;;;;;;5070689;28;20245;-83
2022/04/25 02:00:34;;;;;;;3.03;2.83;;;;;;;;;;5070551;28;20333;-83
2022/04/25 02:03:00;;;;;;;3.83;3.53;;;;;;;;;;5068783;28;20243;-83
2022/04/25 02:05:26;;;;;;;3.47;3.17;;;;;;;;;;5070369;28;20725;-84
2022/04/25 02:07:52;;;;;;;3.27;3.03;;;;;;;;;;5088301;28;20180;-82
2022/04/25 02:10:18;;;;;;;3.47;3.13;;;;;;;;;;5088713;28;20240;-85
2022/04/25 02:12:45;;;;;;;3.10;2.90;;;;;;;;;;5069375;28;20177;-84
2022/04/25 02:15:13;;;;;;;2.83;2.63;;;;;;;;;;5094458;28;20172;-85
2022/04/25 02:17:39;;;;;;;3.00;2.80;;;;;;;;;;5075504;28;20196;-84
2022/04/25 02:20:05;;;;;;;3.13;2.93;;;;;;;;;;5077008;28;20188;-82
2022/04/25 02:22:35;;;;;;;3.57;3.27;;;;;;;;;;5091554;28;20687;-84
2022/04/25 02:25:01;;;;;;;3.13;2.93;;;;;;;;;;5073594;28;20184;-84
2022/04/25 02:27:27;;;;;;;3.03;2.83;;;;;;;;;;5091351;28;20223;-85
2022/04/25 02:29:57;;;;;;;3.03;2.83;;;;;;;;;;5073013;28;20264;-82
2022/04/25 02:32:23;;;;;;;2.93;2.73;;;;;;;;;;5072931;28;20630;-84
2022/04/25 02:34:53;;;;;;;3.57;3.10;;;;;;;;;;5071535;28;20187;-84
2022/04/25 02:37:19;;;;;;;3.13;2.87;;;;;;;;;;5069595;28;20214;-83
2022/04/25 02:39:45;;;;;;;3.43;3.13;;;;;;;;;;5091250;28;20206;-85
2022/04/25 02:42:11;;;;;;;3.07;2.87;;;;;;;;;;5072195;28;20707;-84
2022/04/25 02:44:38;;;;;;;3.30;3.10;;;;;;;;;;5073460;28;20184;-85
2022/04/25 02:47:04;;;;;;;3.43;3.23;;;;;;;;;;5071570;28;20198;-81
2022/04/25 02:49:30;;;;;;;3.40;3.20;;;;;;;;;;5088611;28;20179;-83
2022/04/25 02:51:56;;;;;;;3.40;2.87;;;;;;;;;;5072536;28;20191;-83
2022/04/25 02:54:22;;;;;;;3.33;3.03;;;;;;;;;;5071058;28;20176;-83
2022/04/25 02:56:48;;;;;;;3.43;3.13;;;;;;;;;;5068863;28;20648;-84
2022/04/25 02:59:15;;;;;;;3.23;3.03;;;;;;;;;;5072336;28;20180;-83
2022/04/25 03:01:41;;;;;;;2.90;2.70;;;;;;;;;;5071567;28;20537;-82
2022/04/25 03:04:08;;;;;;;2.63;2.43;;;;;;;;;;5090344;28;20566;-83
2022/04/25 03:06:34;;;;;;;3.33;3.03;;;;;;;;;;5069880;28;20188;-83
2022/04/25 03:09:00;;;;;;;3.00;2.80;;;;;;;;;;5088109;28;20248;-84
2022/04/25 03:11:26;;;;;;;3.10;2.70;;;;;;;;;;5066790;28;20653;-82
2022/04/25 03:13:55;;;;;;;3.00;2.80;;;;;;;;;;5070634;28;20264;-83
2022/04/25 03:16:22;;;;;;;3.43;3.00;;;;;;;;;;5086091;28;20249;-83
2022/04/25 03:18:49;;;;;;;2.93;2.73;;;;;;;;;;5069833;28;20180;-82
2022/04/25 03:21:15;;;;;;;3.00;2.80;;;;;;;;;;5071381;28;20274;-84
2022/04/25 03:23:41;;;;;;;3.07;2.83;;;;;;;;;;5088484;28;20253;-81
2022/04/25 03:26:07;;;;;;;2.80;2.60;;;;;;;;;;5072253;28;20257;-85
2022/04/25 03:28:33;;;;;;;2.97;2.77;;;;;;;;;;5069958;28;20183;-83
2022/04/25 03:30:59;;;;;;;2.87;2.60;;;;;;;;;;5070051;28;20238;-83
2022/04/25 03:33:31;;;;;;;7.30;6.93;;;;;;;;;;5070519;28;20182;-84
2022/04/25 03:35:57;;;;;;;2.90;2.70;;;;;;;;;;5069434;28;20168;-81
2022/04/25 03:38:23;;;;;;;2.70;2.50;;;;;;;;;;5089143;28;20574;-83
2022/04/25 03:40:49;;;;;;;2.70;2.50;;;;;;;;;;5070816;28;20180;-82
2022/04/25 03:43:17;;;;;;;2.73;2.53;;;;;;;;;;5071239;28;20191;-83
2022/04/25 03:45:43;;;;;;;2.93;2.73;;;;;;;;;;5071622;28;20188;-84
2022/04/25 03:48:09;;;;;;;3.07;2.70;;;;;;;;;;5067740;28;20191;-84
2022/04/25 03:50:35;;;;;;;2.90;2.70;;;;;;;;;;5073912;28;20203;-84
2022/04/25 03:53:09;;;;;;;2.70;2.57;;;;;;;;;;5072365;28;20258;-84
2022/04/25 03:58:21;;;;;;;7.20;6.80;;;;;;;;;;5091516;28;20222;-83
2022/04/25 04:00:47;;;;;;;3.23;3.03;;;;;;;;;;5089744;28;20276;-84
2022/04/25 04:03:15;;;;;;;6.60;6.23;;;;;;;;;;5090138;28;20237;-82
2022/04/25 04:05:42;;;;;;;3.00;2.80;;;;;;;;;;5072344;28;20233;-84
2022/04/25 04:08:08;;;;;;;3.53;3.27;;;;;;;;;;5071270;28;20187;-84
2022/04/25 04:10:34;;;;;;;3.20;3.00;;;;;;;;;;5070623;28;20211;-83
2022/04/25 04:13:00;;;;;;;2.80;2.60;;;;;;;;;;5088232;28;20262;-83
2022/04/25 04:15:27;;;;;;;3.30;3.00;;;;;;;;;;5088630;28;20172;-85
2022/04/25 04:17:53;;;;;;;2.90;2.70;;;;;;;;;;5070196;28;20182;-83
2022/04/25 04:20:19;;;;;;;3.07;2.87;;;;;;;;;;5074172;28;20626;-84
2022/04/25 04:22:45;;;;;;;2.67;2.47;;;;;;;;;;5072752;28;20213;-85
2022/04/25 04:25:14;;;;;;;6.10;5.70;;;;;;;;;;5071057;28;20199;-84
2022/04/25 04:27:41;;;;;;;2.50;2.30;;;;;;;;;;5072340;28;20229;-83
2022/04/25 04:30:08;;;;;;;3.30;3.00;;;;;;;;;;5089570;28;20436;-81
2022/04/25 04:32:35;;;;;;;2.70;2.50;;;;;;;;;;5073589;28;20247;-83
2022/04/25 04:35:02;;;;;;;2.90;2.70;;;;;;;;;;5073132;28;20205;-81
2022/04/25 04:37:29;;;;;;;3.00;2.80;;;;;;;;;;5087535;28;20183;-82
2022/04/25 04:42:40;;;;;;;2.90;2.70;;;;;;;;;;5088922;28;20217;-83
2022/04/25 04:45:06;;;;;;;2.97;2.77;;;;;;;;;;5076681;28;20647;-83
2022/04/25 04:47:36;;;;;;;2.83;2.63;;;;;;;;;;5075594;28;20195;-83
2022/04/25 04:50:06;;;;;;;3.13;2.93;;;;;;;;;;5085159;28;20207;-82
2022/04/25 04:52:32;;;;;;;5.20;4.87;;;;;;;;;;5071283;28;20479;-84
2022/04/25 04:54:59;;;;;;;2.80;2.60;;;;;;;;;;5074329;28;20290;-84
2022/04/25 04:57:25;;;;;;;2.73;2.50;;;;;;;;;;5073329;28;20749;-83
2022/04/25 04:59:51;;;;;;;2.90;2.70;;;;;;;;;;5083705;28;20176;-83
2022/04/25 05:02:17;;;;;;;7.17;6.77;;;;;;;;;;5073327;28;20191;-83
2022/04/25 05:04:49;;;;;;;3.00;2.70;;;;;;;;;;5086712;28;20270;-85
2022/04/25 05:07:15;;;;;;;3.30;3.10;;;;;;;;;;5074110;28;20196;-83
2022/04/25 05:09:42;;;;;;;3.20;2.90;;;;;;;;;;5086317;28;20180;-84
2022/04/25 05:12:09;;;;;;;3.33;2.90;;;;;;;;;;5078558;28;20172;-87
2022/04/25 05:14:35;;;;;;;3.13;2.80;;;;;;;;;;5066615;28;20180;-83
2022/04/25 05:17:02;;;;;;;3.00;2.80;;;;;;;;;;5094942;28;20638;-86
2022/04/25 05:19:28;;;;;;;2.70;2.50;;;;;;;;;;5077919;28;20172;-87
2022/04/25 05:21:58;;;;;;;2.50;2.40;;;;;;;;;;5078755;28;20180;-87
2022/04/25 05:24:24;;;;;;;2.90;2.70;;;;;;;;;;5078089;28;20271;-86
2022/04/25 05:26:51;;;;;;;3.47;3.17;;;;;;;;;;5078770;28;20250;-85
2022/04/25 05:29:17;;;;;;;5.97;2.53;;;;;;;;;;5075789;28;20323;-87
2022/04/25 05:31:44;;;;;;;3.20;3.00;;;;;;;;;;5076596;28;20208;-83
2022/04/25 05:34:14;;;;;;;4.10;3.07;;;;;;;;;;5056780;28;20173;-86
2022/04/25 05:36:41;;;;;;;3.83;3.10;;;;;;;;;;5071294;28;20164;-86
2022/04/25 05:39:08;;;;;;;3.20;2.90;;;;;;;;;;5073898;28;20206;-87
2022/04/25 05:41:36;;;;;;;3.60;3.30;;;;;;;;;;5067480;28;20245;-87
2022/04/25 05:44:03;;;;;;;3.17;2.87;;;;;;;;;;5073908;28;20215;-84
2022/04/25 05:46:29;;;;;;;2.80;2.60;;;;;;;;;;5073783;28;20196;-86
2022/04/25 05:51:59;;;;;;;3.10;2.90;;;;;;;;;;5069789;28;20202;-87
2022/04/25 05:54:26;;;;;;;3.47;3.23;;;;;;;;;;5075276;28;20275;-87
2022/04/25 05:56:52;;;;;;;3.00;2.80;;;;;;;;;;5075604;28;20177;-86
2022/04/25 05:59:19;;;;;;;2.90;2.70;;;;;;;;;;5074929;28;20563;-84
2022/04/25 06:01:45;;;;;;;2.70;2.50;;;;;;;;;;5075616;28;20181;-87
2022/04/25 06:04:11;;;;;;;3.07;2.77;;;;;;;;;;5071059;28;20626;-86
2022/04/25 06:06:40;;;;;;;2.90;2.70;;;;;;;;;;5073761;28;20187;-85
2022/04/25 06:09:07;;;;;;;3.17;2.90;;;;;;;;;;5064023;28;20221;-87
2022/04/25 06:11:33;;;;;;;3.47;3.17;;;;;;;;;;5072308;28;20204;-87
2022/04/25 06:14:01;;;;;;;4.40;3.33;;;;;;;;;;5072475;28;20184;-86
2022/04/25 06:16:27;;;;;;;2.83;2.63;;;;;;;;;;5072225;28;20180;-85
2022/04/25 06:18:53;;;;;;;3.27;3.07;;;;;;;;;;5085260;28;20238;-85
2022/04/25 06:21:19;;;;;;;4.10;2.80;;;;;;;;;;5066876;28;20184;-87
2022/04/25 06:23:46;;;;;;;3.10;2.90;;;;;;;;;;5074213;28;20180;-87
2022/04/25 06:26:13;;;;;;;3.40;3.10;;;;;;;;;;5077451;28;20212;-86
2022/04/25 06:28:41;;;;;;;3.27;3.07;;;;;;;;;;5081886;28;20546;-84
2022/04/25 06:31:08;;;;;;;2.87;2.67;;;;;;;;;;5064519;28;20326;-80
2022/04/25 06:33:35;;;;;;;3.20;3.00;;;;;;;;;;5052063;28;20176;-78
2022/04/25 06:36:01;;;;;;;3.50;3.10;;;;;;;;;;5052021;28;20519;-80
2022/04/25 06:38:28;;;;;;;3.53;2.80;;;;;;;;;;5052343;28;20203;-79
2022/04/25 06:40:55;;;;;;;3.37;3.03;;;;;;;;;;5053027;28;20183;-79
2022/04/25 06:43:21;;;;;;;3.47;3.17;;;;;;;;;;5052322;28;20180;-80
2022/04/25 06:45:48;;;;;;;3.50;3.20;;;;;;;;;;5052904;28;20192;-80
2022/04/25 06:48:14;;;;;;;3.70;3.20;;;;;;;;;;5065773;28;20318;-78
2022/04/25 06:50:40;;;;;;;3.23;2.90;;;;;;;;;;5053258;28;20223;-80
2022/04/25 06:53:06;;;;;;;3.70;3.40;;;;;;;;;;5050710;28;20188;-80
2022/04/25 06:55:34;;;;;;;3.77;3.37;;;;;;;;;;5052622;28;20628;-80
2022/04/25 06:58:00;;;;;;;3.37;3.07;;;;;;;;;;5054046;28;20181;-80
2022/04/25 07:00:27;;;;;;;3.63;3.33;;;;;;;;;;5071930;28;20176;-80
2022/04/25 07:02:54;;;;;;;3.63;3.33;;;;;;;;;;5054289;28;20187;-82
2022/04/25 07:05:21;;;;;;;3.00;2.70;;;;;;;;;;5061886;28;20242;-78
2022/04/25 07:07:47;;;;;;;3.47;3.17;;;;;;;;;;5040639;28;20189;-79
2022/04/25 07:10:13;;;;;;;3.70;3.40;;;;;;;;;;5041718;28;20578;-80
2022/04/25 07:12:39;;;;;;;6.03;4.23;;;;;;;;;;5051930;28;20256;-78
2022/04/25 07:15:06;;;;;;;4.30;3.50;;;;;;;;;;5064732;28;20180;-79
2022/04/25 07:17:32;;;;;;;5.30;3.77;;;;;;;;;;5050628;28;20640;-79
2022/04/25 07:19:58;;;;;;;3.90;3.43;;;;;;;;;;5051478;28;20216;-81
2022/04/25 07:30:39;;;;;;;5.00;4.37;;;;;;;;;;5070909;28;20250;-79
2022/04/25 07:33:05;;;;;;;4.87;4.37;;;;;;;;;;5052956;28;20251;-79
2022/04/25 07:35:31;;;;;;;5.53;4.73;;;;;;;;;;5071673;28;20265;-79
2022/04/25 07:37:57;;;;;;;6.57;5.00;;;;;;;;;;5060266;28;20184;-78
2022/04/25 07:40:23;;;;;;;5.87;4.60;;;;;;;;;;5051799;28;20191;-80
2022/04/25 07:42:49;;;;;;;5.07;4.63;;;;;;;;;;5064468;28;20179;-79
2022/04/25 07:45:15;;;;;;;5.50;4.63;;;;;;;;;;5060004;28;20200;-78
2022/04/25 07:47:45;;;;;;;5.73;4.73;;;;;;;;;;5055564;28;20216;-79
2022/04/25 07:50:11;;;;;;;4.57;4.17;;;;;;;;;;5048213;28;20655;-78
2022/04/25 07:52:37;;;;;;;6.17;5.30;;;;;;;;;;5060022;28;20189;-79
2022/04/25 07:55:04;;;;;;;5.10;4.70;;;;;;;;;;5051054;28;20176;-80
2022/04/25 07:57:30;;;;;;;5.30;4.80;;;;;;;;;;5057256;28;20180;-79
2022/04/25 07:59:59;;;;;;;5.60;5.00;;;;;;;;;;5065798;28;20615;-79
2022/04/25 08:02:25;;;;;;;5.83;5.33;;;;;;;;;;5064469;28;20180;-80
2022/04/25 08:04:51;;;;;;;4.93;4.53;;;;;;;;;;5049764;28;20179;-78
2022/04/25 08:07:17;;;;;;;5.90;5.30;;;;;;;;;;5051673;28;20176;-79
2022/04/25 08:09:44;;;;;;;5.93;5.43;;;;;;;;;;5050957;28;20184;-78
2022/04/25 08:20:24;;;;;;;5.23;4.73;;;;;;;;;;5067816;28;20210;-79
2022/04/25 08:22:50;;;;;;;5.50;5.00;;;;;;;;;;5055913;28;20279;-80
2022/04/25 08:25:18;;;;;;;11.30;5.90;;;;;;;;;;5051730;28;20635;-78
2022/04/25 08:27:44;;;;;;;5.50;5.00;;;;;;;;;;5047797;28;20291;-82
2022/04/25 08:30:11;;;;;;;5.30;4.80;;;;;;;;;;5050913;28;20236;-79
2022/04/25 08:32:38;;;;;;;4.50;4.10;;;;;;;;;;5058244;28;20274;-78
2022/04/25 08:35:04;;;;;;;5.30;4.90;;;;;;;;;;5057119;28;20715;-80
2022/04/25 08:37:30;;;;;;;5.30;4.80;;;;;;;;;;5058716;28;20653;-79
2022/04/25 08:39:56;;;;;;;5.20;4.77;;;;;;;;;;5059597;28;20186;-79
2022/04/25 08:42:22;;;;;;;5.43;4.90;;;;;;;;;;5080035;28;20176;-79
2022/04/25 08:44:57;;;;;;;6.43;5.33;;;;;;;;;;5056963;28;20180;-79
2022/04/25 08:47:27;;;;;;;5.03;4.60;;;;;;;;;;5051318;28;20223;-78
2022/04/25 08:49:55;;;;;;;5.43;4.93;;;;;;;;;;5051423;28;20176;-79
2022/04/25 08:52:22;;;;;;;5.40;4.87;;;;;;;;;;5052750;28;20747;-79
2022/04/25 08:54:49;;;;;;;4.60;4.20;;;;;;;;;;5058217;28;20234;-77
2022/04/25 08:57:17;;;;;;;5.50;5.10;;;;;;;;;;5070693;28;20639;-81
2022/04/25 08:59:44;;;;;;;5.50;5.00;;;;;;;;;;5051187;28;20184;-79
2022/04/25 09:02:10;;;;;;;5.37;4.87;;;;;;;;;;5058888;28;20199;-80
2022/04/25 09:04:36;;;;;;;5.40;4.93;;;;;;;;;;5089000;28;20667;-78
2022/04/25 09:07:03;;;;;;;5.57;5.10;;;;;;;;;;5054324;28;20184;-78
2022/04/25 09:09:29;;;;;;;5.80;5.27;;;;;;;;;;5069788;28;20521;-79
2022/04/25 09:12:10;;;;;;;6.10;5.50;;;;;;;;;;5054194;28;20658;-79
2022/04/25 09:14:37;;;;;;;5.90;5.40;;;;;;;;;;5067992;28;20173;-79
2022/04/25 09:17:03;;;;;;;6.43;5.93;;;;;;;;;;5056672;28;20443;-81
2022/04/25 09:19:31;;;;;;;6.37;5.87;;;;;;;;;;5055120;28;20634;-79
2022/04/25 09:21:57;;;;;;;6.50;5.90;;;;;;;;;;5054458;28;20345;-79
2022/04/25 09:24:24;;;;;;;6.80;6.30;;;;;;;;;;5055602;28;20246;-78
2022/04/25 09:26:51;;;;;;;6.07;5.57;;;;;;;;;;5073342;28;20200;-80
2022/04/25 09:29:24;;;;;;;6.53;5.93;;;;;;;;;;5055337;28;20220;-78
2022/04/25 09:31:50;;;;;;;7.23;6.57;;;;;;;;;;5073580;28;20639;-79
2022/04/25 09:34:59;;;;;;;6.97;6.37;;;;;;;;;;5054535;28;20603;-80
2022/04/25 09:37:05;;;;;;;6.90;6.30;;;;;;;;;;5060120;28;20557;-79
2022/04/25 09:39:31;;;;;;;7.27;6.67;;;;;;;;;;5054481;28;20176;-80
2022/04/25 09:41:57;;;;;;;7.17;6.57;;;;;;;;;;5069886;28;20235;-79
2022/04/25 09:44:23;;;;;;;7.80;7.07;;;;;;;;;;5070399;28;20189;-80
2022/04/25 09:46:50;;;;;;;7.97;7.27;;;;;;;;;;5071485;28;20184;-78
2022/04/25 09:49:20;;;;;;;7.10;6.50;;;;;;;;;;5055704;28;20184;-80
2022/04/25 09:52:02;;;;;;;7.50;6.90;;;;;;;;;;5074763;28;20207;-78
2022/04/25 09:54:28;;;;;;;8.43;7.70;;;;;;;;;;5071883;28;20259;-79
2022/04/25 09:56:54;;;;;;;8.83;7.93;;;;;;;;;;5069113;28;20180;-79
2022/04/25 09:59:21;;;;;;;9.43;8.73;;;;;;;;;;5068984;28;20789;-81
2022/04/25 10:02:00;;;;;;;8.73;8.03;;;;;;;;;;5070756;28;20268;-79
2022/04/25 10:04:31;;;;;;;9.73;8.93;;;;;;;;;;5051452;28;20663;-79
2022/04/25 10:06:59;;;;;;;9.50;8.33;;;;;;;;;;5069113;28;20180;-79
2022/04/25 10:09:29;;;;;;;9.87;8.97;;;;;;;;;;5072459;28;20172;-79
2022/04/25 10:11:57;;;;;;;10.20;9.30;;;;;;;;;;5059203;28;20566;-79
2022/04/25 10:14:24;;;;;;;9.93;9.10;;;;;;;;;;5079232;28;20172;-79
2022/04/25 10:16:50;;;;;;;10.20;9.20;;;;;;;;;;5077490;28;20184;-81
2022/04/25 10:19:17;;;;;;;10.87;9.97;;;;;;;;;;5073391;28;20275;-81
2022/04/25 10:21:43;;;;;;;10.13;9.23;;;;;;;;;;5073671;28;20180;-79
2022/04/25 10:24:10;;;;;;;9.70;8.80;;;;;;;;;;5073133;28;20180;-78
2022/04/25 10:26:36;;;;;;;10.47;9.57;;;;;;;;;;5071764;28;20608;-80
2022/04/25 10:29:07;;;;;;;10.13;9.30;;;;;;;;;;5055183;28;20181;-79
2022/04/25 10:31:41;;;;;;;9.97;9.20;;;;;;;;;;5067112;28;20215;-78
2022/04/25 10:34:07;;;;;;;10.07;9.17;;;;;;;;;;5054596;28;20192;-79
2022/04/25 10:36:39;;;;;;;10.07;9.07;;;;;;;;;;5053995;28;20760;-80
2022/04/25 10:39:15;;;;;;;9.77;8.97;;;;;;;;;;5048737;28;20184;-79
2022/04/25 10:44:42;;;;;;;8.87;8.17;;;;;;;;;;5054703;28;20200;-79
2022/04/25 10:47:09;;;;;;;8.60;7.90;;;;;;;;;;5054583;28;20215;-78
2022/04/25 10:49:35;;;;;;;9.27;8.57;;;;;;;;;;5053158;28;20203;-79
2022/04/25 10:52:02;;;;;;;10.60;8.97;;;;;;;;;;5072848;28;20204;-81
2022/04/25 10:54:46;;;;;;;9.67;8.87;;;;;;;;;;5090303;28;20183;-80
2022/04/25 10:57:12;;;;;;;9.17;8.27;;;;;;;;;;5050775;28;20176;-81
2022/04/25 10:59:38;;;;;;;8.40;7.80;;;;;;;;;;5072294;28;20187;-78
2022/04/25 11:02:23;;;;;;;8.70;7.90;;;;;;;;;;5052708;28;20275;-80
2022/04/25 11:05:10;;;;;;;8.03;7.43;;;;;;;;;;5052841;28;20233;-79
2022/04/25 11:07:37;;;;;;;8.27;7.57;;;;;;;;;;5029849;28;20567;-80
2022/04/25 11:10:04;;;;;;;8.23;7.50;;;;;;;;;;5072355;28;20164;-80
2022/04/25 11:12:49;;;;;;;8.23;7.57;;;;;;;;;;5059358;28;20706;-79
2022/04/25 11:15:35;;;;;;;7.53;6.90;;;;;;;;;;5071149;28;20297;-78
2022/04/25 11:18:20;;;;;;;7.63;7.03;;;;;;;;;;5064829;28;20477;-80
2022/04/25 11:21:04;;;;;;;8.07;7.37;;;;;;;;;;5066749;28;20232;-78
2022/04/25 11:23:31;;;;;;;7.20;6.60;;;;;;;;;;5063817;28;20195;-79
2022/04/25 11:25:59;;;;;;;7.57;6.90;;;;;;;;;;5054714;28;20231;-79
2022/04/25 11:28:26;;;;;;;7.30;6.70;;;;;;;;;;5070043;28;20184;-80
2022/04/25 11:31:12;;;;;;;8.40;7.67;;;;;;;;;;5070396;28;20235;-82
2022/04/25 11:33:45;;;;;;;7.97;7.27;;;;;;;;;;5053677;28;20287;-78
2022/04/25 11:36:13;;;;;;;8.93;8.03;;;;;;;;;;5057223;28;20232;-79
2022/04/25 11:41:24;;;;;;;8.23;7.53;;;;;;;;;;5073246;28;20321;-79
2022/04/25 11:43:50;;;;;;;8.87;7.90;;;;;;;;;;5073420;28;20172;-78
2022/04/25 11:46:17;;;;;;;8.73;8.03;;;;;;;;;;5052827;28;20192;-79
2022/04/25 11:48:47;;;;;;;9.07;8.27;;;;;;;;;;5051902;28;20895;-78
2022/04/25 11:51:21;;;;;;;9.10;8.20;;;;;;;;;;5054857;28;20209;-80
2022/04/25 11:53:47;;;;;;;9.53;8.70;;;;;;;;;;5046041;28;20176;-79
2022/04/25 11:56:14;;;;;;;9.87;8.93;;;;;;;;;;5043286;28;20189;-79
2022/04/25 11:58:41;;;;;;;10.47;9.43;;;;;;;;;;5049670;28;20576;-80
2022/04/25 12:01:09;;;;;;;10.67;9.80;;;;;;;;;;5052678;28;20184;-78
2022/04/25 12:03:36;;;;;;;10.93;9.93;;;;;;;;;;5070303;28;20530;-79
2022/04/25 12:06:12;;;;;;;10.40;9.50;;;;;;;;;;5052648;28;20183;-81
2022/04/25 12:17:00;;;;;;;11.17;10.07;;;;;;;;;;5066279;28;20195;-79
2022/04/25 12:19:26;;;;;;;10.87;9.87;;;;;;;;;;5050402;28;20174;-80
2022/04/25 12:22:03;;;;;;;10.53;9.60;;;;;;;;;;5052252;28;20219;-79
2022/04/25 12:24:29;;;;;;;10.77;9.77;;;;;;;;;;5051720;28;20180;-80
2022/04/25 12:26:55;;;;;;;10.70;9.43;;;;;;;;;;5053974;28;20302;-78
2022/04/25 12:29:22;;;;;;;10.87;9.87;;;;;;;;;;5049785;28;20701;-78
2022/04/25 12:31:48;;;;;;;11.27;10.17;;;;;;;;;;5051269;28;20664;-80
2022/04/25 12:34:16;;;;;;;11.13;10.13;;;;;;;;;;5051217;28;20259;-78
2022/04/25 12:36:55;;;;;;;10.93;9.83;;;;;;;;;;5068146;28;20200;-79
2022/04/25 12:39:21;;;;;;;11.00;10.00;;;;;;;;;;5051651;28;20195;-79
2022/04/25 12:41:58;;;;;;;11.40;10.40;;;;;;;;;;5056954;28;20298;-79
2022/04/25 12:44:25;;;;;;;10.83;9.73;;;;;;;;;;5071860;28;20171;-78
2022/04/25 12:47:03;;;;;;;10.97;9.90;;;;;;;;;;5054427;28;20187;-79
2022/04/25 12:49:43;;;;;;;11.27;10.27;;;;;;;;;;5041282;28;20178;-79
2022/04/25 12:52:10;;;;;;;10.03;8.60;;;;;;;;;;5055616;28;20200;-80
2022/04/25 12:54:41;;;;;;;11.32;10.43;;;;;;;;;;5054020;28;20426;-79
2022/04/25 12:57:26;;;;;;;11.98;11.07;;;;;;;;;;5061335;28;20481;-79
2022/04/25 12:59:52;;;;;;;9.67;8.77;;;;;;;;;;5068936;28;20165;-79
2022/04/25 13:02:20;;;;;;;10.07;9.17;;;;;;;;;;5063290;28;20183;-81
2022/04/25 13:04:55;;;;;;;9.93;9.13;;;;;;;;;;5072926;28;20573;-80
2022/04/25 13:07:24;;;;;;;14.17;9.83;;;;;;;;;;5050091;28;20180;-83
2022/04/25 13:09:55;;;;;;;11.87;9.50;;;;;;;;;;5054166;28;20203;-80
2022/04/25 13:12:21;;;;;;;13.97;9.70;;;;;;;;;;5055570;28;20540;-80
2022/04/25 13:14:48;;;;;;;11.77;9.10;;;;;;;;;;5055038;28;20176;-79
2022/04/25 13:17:14;;;;;;;10.13;9.13;;;;;;;;;;5058821;28;20648;-80
2022/04/25 13:19:41;;;;;;;10.17;9.13;;;;;;;;;;5053631;28;20172;-78
2022/04/25 13:22:08;;;;;;;10.77;9.70;;;;;;;;;;5072480;28;20191;-78
2022/04/25 13:24:35;;;;;;;14.07;8.63;;;;;;;;;;5053184;28;20698;-80
2022/04/25 13:27:02;;;;;;;12.67;9.60;;;;;;;;;;5059524;28;20200;-78
2022/04/25 13:29:29;;;;;;;10.87;8.97;;;;;;;;;;5090370;28;20216;-78
2022/04/25 13:31:56;;;;;;;13.40;9.57;;;;;;;;;;5055759;28;20189;-80
2022/04/25 13:34:22;;;;;;;13.43;10.10;;;;;;;;;;5050590;28;20361;-83
2022/04/25 13:36:48;;;;;;;11.53;10.33;;;;;;;;;;5051451;28;20169;-79
2022/04/25 13:39:15;;;;;;;10.33;9.33;;;;;;;;;;5055676;28;20623;-79
2022/04/25 13:41:41;;;;;;;12.97;9.57;;;;;;;;;;5059930;28;20196;-78
2022/04/25 13:44:08;;;;;;;10.67;9.57;;;;;;;;;;5060730;28;20200;-81
2022/04/25 13:46:35;;;;;;;10.33;9.13;;;;;;;;;;5050983;28;20184;-78
2022/04/25 13:49:02;;;;;;;10.27;9.27;;;;;;;;;;5065998;28;20173;-80
2022/04/25 13:51:28;;;;;;;10.67;9.67;;;;;;;;;;5046992;28;20225;-79
2022/04/25 13:53:54;;;;;;;10.03;8.83;;;;;;;;;;5051697;28;20180;-79
2022/04/25 13:56:21;;;;;;;10.87;9.77;;;;;;;;;;5071774;28;20184;-80
2022/04/25 13:58:47;;;;;;;9.37;8.57;;;;;;;;;;5055251;28;20534;-83
2022/04/25 14:01:14;;;;;;;11.93;10.83;;;;;;;;;;5053179;28;20180;-80
2022/04/25 14:03:41;;;;;;;11.03;9.20;;;;;;;;;;5058354;28;20316;-80
2022/04/25 14:06:10;;;;;;;9.50;8.50;;;;;;;;;;5051416;28;20188;-78
2022/04/25 14:08:37;;;;;;;8.63;7.83;;;;;;;;;;5052504;28;20188;-81
2022/04/25 14:11:04;;;;;;;8.53;7.60;;;;;;;;;;5052785;28;20697;-79
2022/04/25 14:13:30;;;;;;;7.93;7.13;;;;;;;;;;5053403;28;20172;-78
2022/04/25 14:15:57;;;;;;;8.57;7.77;;;;;;;;;;5053707;28;20226;-80
2022/04/25 14:18:24;;;;;;;9.57;8.10;;;;;;;;;;5051192;28;20180;-81
2022/04/25 14:20:54;;;;;;;10.50;8.30;;;;;;;;;;5053826;28;20276;-78
2022/04/25 14:23:20;;;;;;;10.90;9.90;;;;;;;;;;5062363;28;20590;-80
2022/04/25 14:25:47;;;;;;;8.60;7.80;;;;;;;;;;5053298;28;20216;-79
2022/04/25 14:28:13;;;;;;;9.57;8.60;;;;;;;;;;5053027;28;20642;-79
2022/04/25 14:30:42;;;;;;;8.77;7.90;;;;;;;;;;5053268;28;20228;-78
2022/04/25 14:33:08;;;;;;;9.33;8.33;;;;;;;;;;5051532;28;20181;-80
2022/04/25 14:35:34;;;;;;;9.57;8.57;;;;;;;;;;5057571;28;20177;-79
2022/04/25 14:38:00;;;;;;;9.23;8.30;;;;;;;;;;5050651;28;20192;-79
2022/04/25 14:40:27;;;;;;;10.27;9.27;;;;;;;;;;5052367;28;20199;-80
2022/04/25 14:42:53;;;;;;;8.70;7.93;;;;;;;;;;5070660;28;20179;-78
2022/04/25 14:45:19;;;;;;;11.40;10.37;;;;;;;;;;5056758;28;20713;-80
2022/04/25 14:47:48;;;;;;;10.77;9.67;;;;;;;;;;5074117;28;20268;-81
2022/04/25 14:55:47;;;;;;;10.63;9.53;;;;;;;;;;5072648;28;20238;-83
2022/04/25 14:58:14;;;;;;;10.53;9.63;;;;;;;;;;5052089;28;20184;-80
2022/04/25 15:00:42;;;;;;;10.33;9.33;;;;;;;;;;5077967;28;20172;-83
2022/04/25 15:03:09;;;;;;;9.30;8.40;;;;;;;;;;5051385;28;20639;-80
2022/04/25 15:05:39;;;;;;;8.67;7.87;;;;;;;;;;5070925;28;20229;-79
2022/04/25 15:08:05;;;;;;;13.27;8.80;;;;;;;;;;5051404;28;20197;-79
2022/04/25 15:10:31;;;;;;;9.07;8.17;;;;;;;;;;5052560;28;20212;-82
2022/04/25 15:12:58;;;;;;;12.37;7.60;;;;;;;;;;5060820;28;20230;-81
2022/04/25 15:15:24;;;;;;;11.23;8.80;;;;;;;;;;5051936;28;20231;-81
2022/04/25 15:17:51;;;;;;;7.77;7.07;;;;;;;;;;5052719;28;20183;-80
2022/04/25 15:20:17;;;;;;;7.77;6.97;;;;;;;;;;5067828;28;20273;-81
2022/04/25 15:22:43;;;;;;;7.77;7.10;;;;;;;;;;5052346;28;20259;-80
2022/04/25 15:25:09;;;;;;;8.57;7.00;;;;;;;;;;5049685;28;20279;-80
2022/04/25 15:27:36;;;;;;;7.03;6.43;;;;;;;;;;5061343;28;20214;-80
2022/04/25 15:30:03;;;;;;;8.00;7.13;;;;;;;;;;5062925;28;20684;-81
2022/04/25 15:32:29;;;;;;;8.23;7.17;;;;;;;;;;5064611;28;20545;-80
2022/04/25 15:34:55;;;;;;;8.30;7.50;;;;;;;;;;5069154;28;20183;-80